Time;durP1;ratioP1;P1;durP2;ratioP2;P2;SDS_P1;SDS_P2;PMS_P1;PMS_P2;Temp;Humidity;BMP_temperature;BMP_pressure;BME280_temperature;BME280_humidity;BME280_pressure;Samples;Min_cycle;Max_cycle;Signal;HPM_P1;HPM_P2
2022/05/03 00:00:03;;;;;;;;;;;7.00;99.90;;;;;;5053444;28;20007;-68
2022/05/03 00:02:35;;;;;;;;;;;6.90;99.90;;;;;;5053338;28;19924;-68
2022/05/03 00:05:23;;;;;;;;;;;6.90;99.90;;;;;;5053621;28;19924;-68
2022/05/03 00:07:52;;;;;;;;;;;6.80;99.90;;;;;;5053343;28;19925;-70
2022/05/03 00:10:31;;;;;;;;;;;6.90;99.90;;;;;;5052375;28;19929;-69
2022/05/03 00:12:58;;;;;;;;;;;6.90;99.90;;;;;;5053289;28;19982;-69
2022/05/03 00:15:24;;;;;;;;;;;7.00;99.90;;;;;;5053648;28;20038;-69
2022/05/03 00:17:51;;;;;;;;;;;6.80;99.90;;;;;;5053400;28;19933;-71
2022/05/03 00:20:17;;;;;;;;;;;7.00;99.90;;;;;;5053395;28;19925;-70
2022/05/03 00:22:43;;;;;;;;;;;7.00;99.90;;;;;;5053254;28;19939;-68
2022/05/03 00:25:09;;;;;;;;;;;7.00;99.90;;;;;;5052985;28;20380;-70
2022/05/03 00:27:35;;;;;;;;;;;7.00;99.90;;;;;;5053131;28;20299;-68
2022/05/03 00:30:02;;;;;;;;;;;6.90;99.90;;;;;;5053299;28;19986;-67
2022/05/03 00:32:28;;;;;;;;;;;6.90;99.90;;;;;;5052393;28;19925;-71
2022/05/03 00:34:55;;;;;;;;;;;6.90;99.90;;;;;;5053303;28;19925;-70
2022/05/03 00:37:21;;;;;;;;;;;5.30;99.90;;;;;;5053283;28;19931;-68
2022/05/03 00:39:47;;;;;;;;;;;6.90;99.90;;;;;;5053128;28;20023;-70
2022/05/03 00:42:15;;;;;;;;;;;6.90;99.90;;;;;;5053055;28;19925;-68
2022/05/03 00:44:56;;;;;;;;;;;6.90;99.90;;;;;;5052902;28;20319;-70
2022/05/03 00:47:29;;;;;;;;;;;5.70;99.90;;;;;;5052346;28;19925;-71
2022/05/03 00:49:54;;;;;;;;;;;7.00;99.90;;;;;;5052134;28;20372;-70
2022/05/03 00:52:39;;;;;;;;;;;6.90;99.90;;;;;;5053051;28;19925;-68
2022/05/03 00:55:10;;;;;;;;;;;6.90;99.90;;;;;;5051655;28;19978;-69
2022/05/03 00:57:40;;;;;;;;;;;7.00;99.90;;;;;;5052107;28;20410;-68
2022/05/03 01:00:08;;;;;;;;;;;7.00;99.90;;;;;;5053048;28;19979;-71
2022/05/03 01:02:52;;;;;;;;;;;7.00;99.90;;;;;;5053035;28;20288;-68
2022/05/03 01:05:25;;;;;;;;;;;6.90;99.90;;;;;;5055275;28;20028;-71
2022/05/03 01:08:05;;;;;;;;;;;6.90;99.90;;;;;;5056585;28;19925;-69
2022/05/03 01:10:32;;;;;;;;;;;7.00;99.90;;;;;;5056497;28;20012;-67
2022/05/03 01:12:57;;;;;;;;;;;7.00;99.90;;;;;;5056507;28;20024;-68
2022/05/03 01:15:25;;;;;;;;;;;7.00;99.90;;;;;;5056469;28;19968;-69
2022/05/03 01:18:00;;;;;;;;;;;6.90;99.90;;;;;;5038715;28;20016;-69
2022/05/03 01:20:26;;;;;;;;;;;6.80;99.90;;;;;;5056448;28;19968;-69
2022/05/03 01:23:20;;;;;;;;;;;6.80;99.90;;;;;;5056260;28;19932;-70
2022/05/03 01:25:46;;;;;;;;;;;6.70;99.90;;;;;;5014108;28;19929;-70
2022/05/03 01:28:17;;;;;;;;;;;6.70;99.90;;;;;;5014251;28;19979;-68
2022/05/03 01:30:47;;;;;;;;;;;6.70;99.90;;;;;;5014187;28;20512;-68
2022/05/03 01:33:16;;;;;;;;;;;6.70;99.90;;;;;;5014278;28;20396;-69
2022/05/03 01:35:45;;;;;;;;;;;6.70;99.90;;;;;;4998045;28;19929;-68
2022/05/03 01:38:10;;;;;;;;;;;6.80;99.90;;;;;;5014165;28;19926;-69
2022/05/03 01:40:36;;;;;;;;;;;6.80;99.90;;;;;;4997858;28;20435;-68
2022/05/03 01:43:02;;;;;;;;;;;6.80;99.90;;;;;;5014004;28;19933;-70
2022/05/03 01:45:41;;;;;;;;;;;6.80;99.90;;;;;;5013903;28;19925;-68
2022/05/03 01:48:21;;;;;;;;;;;6.80;99.90;;;;;;4981215;28;19953;-67
2022/05/03 01:51:00;;;;;;;;;;;6.70;99.90;;;;;;5013832;28;19926;-70
2022/05/03 01:53:25;;;;;;;;;;;6.70;99.90;;;;;;5013720;28;20344;-73
2022/05/03 01:56:09;;;;;;;;;;;6.70;99.90;;;;;;5013634;28;19932;-69
2022/05/03 01:58:47;;;;;;;;;;;6.80;99.90;;;;;;5013766;28;20032;-68
2022/05/03 02:01:30;;;;;;;;;;;6.70;99.90;;;;;;5018338;28;19972;-69
2022/05/03 02:04:02;;;;;;;;;;;6.80;99.90;;;;;;5054434;28;19975;-68
2022/05/03 02:06:51;;;;;;;;;;;6.80;99.90;;;;;;5055349;28;19931;-70
2022/05/03 02:09:21;;;;;;;;;;;6.80;99.90;;;;;;4994632;28;19976;-68
2022/05/03 02:12:03;;;;;;;;;;;6.70;99.90;;;;;;5012703;28;20237;-68
2022/05/03 02:14:44;;;;;;;;;;;5.60;99.90;;;;;;4996992;28;20398;-69
2022/05/03 02:17:28;;;;;;;;;;;6.70;99.90;;;;;;5013354;28;19932;-71
2022/05/03 02:19:54;;;;;;;;;;;6.70;99.90;;;;;;5013344;28;20297;-69
2022/05/03 02:22:38;;;;;;;;;;;7.40;99.90;;;;;;5013148;28;19925;-70
2022/05/03 02:25:17;;;;;;;;;;;6.90;99.90;;;;;;5012601;28;19971;-69
2022/05/03 02:27:47;;;;;;;;;;;6.60;99.90;;;;;;5012840;28;19932;-69
2022/05/03 02:30:14;;;;;;;;;;;6.60;99.90;;;;;;5012855;28;19925;-70
2022/05/03 02:32:47;;;;;;;;;;;6.60;99.90;;;;;;4996608;28;19957;-70
2022/05/03 02:35:17;;;;;;;;;;;6.60;99.90;;;;;;5012768;28;19932;-70
2022/05/03 02:37:49;;;;;;;;;;;6.70;99.90;;;;;;5012619;28;20071;-68
2022/05/03 02:40:17;;;;;;;;;;;6.50;99.90;;;;;;4996495;28;20426;-69
2022/05/03 02:42:44;;;;;;;;;;;6.60;99.90;;;;;;5012557;28;20076;-71
2022/05/03 02:45:12;;;;;;;;;;;6.60;99.90;;;;;;5014139;28;19925;-68
2022/05/03 02:47:50;;;;;;;;;;;6.60;99.90;;;;;;5054388;28;19928;-68
2022/05/03 02:50:15;;;;;;;;;;;6.60;99.90;;;;;;5054184;28;19946;-72
2022/05/03 02:52:51;;;;;;;;;;;6.60;99.90;;;;;;5053027;28;19925;-68
2022/05/03 02:55:28;;;;;;;;;;;6.60;99.90;;;;;;5054316;28;19937;-68
2022/05/03 02:58:03;;;;;;;;;;;6.60;99.90;;;;;;5054199;28;19935;-68
2022/05/03 03:03:14;;;;;;;;;;;7.30;99.90;;;;;;5054168;28;19932;-69
2022/05/03 03:05:44;;;;;;;;;;;7.10;99.90;;;;;;5052956;28;19924;-68
2022/05/03 03:08:13;;;;;;;;;;;6.50;99.90;;;;;;5053791;28;19925;-69
2022/05/03 03:10:56;;;;;;;;;;;6.50;99.90;;;;;;5052943;28;19984;-69
2022/05/03 03:13:38;;;;;;;;;;;6.40;99.90;;;;;;5053803;28;19924;-68
2022/05/03 03:16:06;;;;;;;;;;;6.40;99.90;;;;;;5053982;28;19932;-70
2022/05/03 03:18:33;;;;;;;;;;;6.90;99.90;;;;;;5053944;28;19947;-68
2022/05/03 03:20:59;;;;;;;;;;;7.10;99.90;;;;;;5052904;28;19932;-67
2022/05/03 03:23:25;;;;;;;;;;;6.30;99.90;;;;;;5053613;28;19925;-67
2022/05/03 03:25:51;;;;;;;;;;;6.30;99.90;;;;;;5052299;28;19972;-72
2022/05/03 03:28:18;;;;;;;;;;;7.00;99.90;;;;;;5052159;28;20378;-68
2022/05/03 03:30:44;;;;;;;;;;;6.20;99.90;;;;;;5053914;28;19925;-69
2022/05/03 03:33:12;;;;;;;;;;;6.60;99.90;;;;;;5054017;28;19932;-71
2022/05/03 03:35:38;;;;;;;;;;;7.10;99.90;;;;;;5053916;28;19925;-67
2022/05/03 03:38:05;;;;;;;;;;;7.20;99.90;;;;;;5053839;28;19925;-71
2022/05/03 03:40:30;;;;;;;;;;;6.20;99.90;;;;;;5053378;28;20015;-69
2022/05/03 03:42:56;;;;;;;;;;;6.10;99.90;;;;;;5053522;28;19971;-69
2022/05/03 03:45:23;;;;;;;;;;;6.10;99.90;;;;;;5052715;28;19925;-68
2022/05/03 03:47:48;;;;;;;;;;;6.60;99.90;;;;;;5052878;28;20074;-68
2022/05/03 03:50:14;;;;;;;;;;;6.00;99.90;;;;;;5053765;28;19986;-71
2022/05/03 03:52:43;;;;;;;;;;;5.90;99.90;;;;;;5053506;28;19972;-71
2022/05/03 03:55:10;;;;;;;;;;;5.90;99.90;;;;;;5052630;28;19979;-69
2022/05/03 03:57:36;;;;;;;;;;;5.90;99.90;;;;;;5053510;28;20097;-68
2022/05/03 04:00:06;;;;;;;;;;;6.80;99.90;;;;;;5053757;28;19924;-72
2022/05/03 04:02:32;;;;;;;;;;;5.90;99.90;;;;;;5053683;28;19979;-69
2022/05/03 04:04:59;;;;;;;;;;;5.90;99.90;;;;;;5052471;28;19928;-70
2022/05/03 04:07:25;;;;;;;;;;;6.00;99.90;;;;;;5053575;28;19925;-70
2022/05/03 04:09:51;;;;;;;;;;;5.80;99.90;;;;;;5052315;28;19975;-67
2022/05/03 04:12:18;;;;;;;;;;;7.50;99.90;;;;;;5053260;28;19925;-69
2022/05/03 04:14:44;;;;;;;;;;;5.80;99.90;;;;;;5052637;28;19946;-68
2022/05/03 04:17:10;;;;;;;;;;;5.90;99.90;;;;;;5053536;28;20403;-67
2022/05/03 04:19:35;;;;;;;;;;;6.60;99.90;;;;;;5053458;28;19928;-67
2022/05/03 04:22:12;;;;;;;;;;;6.00;99.90;;;;;;5053366;28;20299;-69
2022/05/03 04:24:38;;;;;;;;;;;6.10;99.90;;;;;;5053121;28;20375;-67
2022/05/03 04:27:04;;;;;;;;;;;6.50;99.90;;;;;;5052890;28;19968;-71
2022/05/03 04:29:29;;;;;;;;;;;6.10;99.90;;;;;;5053150;28;19925;-68
2022/05/03 04:31:55;;;;;;;;;;;6.20;99.90;;;;;;5053058;28;20374;-69
2022/05/03 04:34:21;;;;;;;;;;;7.50;99.90;;;;;;5085698;28;20023;-68
2022/05/03 04:36:46;;;;;;;;;;;6.30;99.90;;;;;;5052970;28;19925;-68
2022/05/03 04:39:12;;;;;;;;;;;6.30;99.90;;;;;;5053716;28;19928;-69
2022/05/03 04:41:37;;;;;;;;;;;7.10;99.90;;;;;;5055572;28;19932;-67
2022/05/03 04:44:03;;;;;;;;;;;7.00;99.90;;;;;;5057050;28;19936;-69
2022/05/03 04:46:29;;;;;;;;;;;5.10;99.90;;;;;;5056814;28;19929;-69
2022/05/03 04:48:55;;;;;;;;;;;6.50;99.90;;;;;;5056659;28;20346;-68
2022/05/03 04:51:21;;;;;;;;;;;7.00;99.90;;;;;;5055477;28;19925;-68
2022/05/03 04:53:47;;;;;;;;;;;6.50;99.90;;;;;;5056716;28;19974;-67
2022/05/03 04:56:22;;;;;;;;;;;7.10;99.90;;;;;;5056372;28;19924;-67
2022/05/03 04:58:48;;;;;;;;;;;6.70;99.90;;;;;;5056612;28;19933;-67
2022/05/03 05:01:15;;;;;;;;;;;6.80;99.90;;;;;;5055545;28;19994;-68
2022/05/03 05:03:41;;;;;;;;;;;7.80;99.90;;;;;;5055479;28;19931;-69
2022/05/03 05:06:07;;;;;;;;;;;7.90;99.90;;;;;;5056288;28;19929;-68
2022/05/03 05:08:33;;;;;;;;;;;6.90;99.90;;;;;;5056089;28;20392;-68
2022/05/03 05:10:59;;;;;;;;;;;7.80;99.90;;;;;;5056113;28;19978;-70
2022/05/03 05:13:25;;;;;;;;;;;7.00;99.90;;;;;;5056062;28;20307;-68
2022/05/03 05:15:50;;;;;;;;;;;7.10;99.90;;;;;;5056356;28;19925;-67
2022/05/03 05:18:16;;;;;;;;;;;7.20;99.90;;;;;;5055985;28;19932;-68
2022/05/03 05:20:42;;;;;;;;;;;7.20;99.90;;;;;;5056203;28;19984;-71
2022/05/03 05:23:08;;;;;;;;;;;7.40;99.90;;;;;;5055992;28;20387;-68
2022/05/03 05:25:34;;;;;;;;;;;7.30;99.90;;;;;;5055803;28;19943;-68
2022/05/03 05:27:59;;;;;;;;;;;7.30;99.90;;;;;;5055752;28;19932;-71
2022/05/03 05:30:25;;;;;;;;;;;7.40;99.90;;;;;;5056170;28;19975;-70
2022/05/03 05:32:50;;;;;;;;;;;7.70;99.90;;;;;;5056237;28;19929;-69
2022/05/03 05:35:16;;;;;;;;;;;8.90;99.90;;;;;;5056158;28;19929;-71
2022/05/03 05:37:41;;;;;;;;;;;7.60;99.90;;;;;;5056136;28;20404;-69
2022/05/03 05:40:07;;;;;;;;;;;7.80;99.90;;;;;;5055836;28;19925;-68
2022/05/03 05:42:33;;;;;;;;;;;7.70;99.90;;;;;;5054923;28;19950;-69
2022/05/03 05:44:58;;;;;;;;;;;9.20;99.90;;;;;;5054859;28;19928;-69
2022/05/03 05:47:24;;;;;;;;;;;7.70;99.90;;;;;;5055105;28;20067;-69
2022/05/03 05:49:49;;;;;;;;;;;7.70;99.90;;;;;;5055533;28;20418;-69
2022/05/03 05:54:59;;;;;;;;;;;7.80;99.90;;;;;;5055548;28;19936;-69
2022/05/03 05:57:25;;;;;;;;;;;7.80;99.90;;;;;;5055569;28;20291;-68
2022/05/03 05:59:51;;;;;;;;;;;7.80;99.90;;;;;;5055771;28;19991;-69
2022/05/03 06:02:16;;;;;;;;;;;8.20;99.90;;;;;;5054686;28;19929;-72
2022/05/03 06:04:42;;;;;;;;;;;7.00;99.90;;;;;;5054291;28;19931;-69
2022/05/03 06:07:07;;;;;;;;;;;8.20;99.90;;;;;;5055597;28;19978;-71
2022/05/03 06:09:33;;;;;;;;;;;8.10;99.90;;;;;;5055536;28;19925;-67
2022/05/03 06:11:59;;;;;;;;;;;9.60;99.90;;;;;;5055209;28;19935;-68
2022/05/03 06:14:24;;;;;;;;;;;8.90;99.90;;;;;;5055191;28;20396;-69
2022/05/03 06:16:54;;;;;;;;;;;8.30;99.90;;;;;;5055475;28;19979;-67
2022/05/03 06:19:19;;;;;;;;;;;8.40;99.90;;;;;;5055339;28;20387;-68
2022/05/03 06:21:45;;;;;;;;;;;8.40;99.90;;;;;;5055179;28;19924;-70
2022/05/03 06:24:11;;;;;;;;;;;8.60;99.90;;;;;;5055244;28;19924;-70
2022/05/03 06:26:37;;;;;;;;;;;8.60;99.90;;;;;;5053534;28;19929;-68
2022/05/03 06:29:02;;;;;;;;;;;8.70;99.90;;;;;;5053358;28;19925;-67
2022/05/03 06:31:28;;;;;;;;;;;8.80;99.90;;;;;;5055022;28;20303;-68
2022/05/03 06:33:54;;;;;;;;;;;9.70;99.90;;;;;;5054688;28;20422;-68
2022/05/03 06:36:20;;;;;;;;;;;8.80;99.90;;;;;;5053981;28;19925;-68
2022/05/03 06:38:45;;;;;;;;;;;9.10;99.90;;;;;;5053840;28;20023;-70
2022/05/03 06:41:12;;;;;;;;;;;9.00;99.90;;;;;;5053443;28;19924;-67
2022/05/03 06:43:37;;;;;;;;;;;10.30;99.90;;;;;;5054523;28;20291;-70
2022/05/03 06:46:03;;;;;;;;;;;10.40;99.90;;;;;;5054747;28;20011;-67
2022/05/03 06:48:29;;;;;;;;;;;9.40;99.90;;;;;;5054713;28;19925;-70
2022/05/03 06:50:54;;;;;;;;;;;9.00;99.90;;;;;;5054600;28;19925;-69
2022/05/03 06:53:20;;;;;;;;;;;9.00;99.90;;;;;;5053462;28;19932;-68
2022/05/03 06:55:46;;;;;;;;;;;9.20;99.90;;;;;;5054937;28;19929;-68
2022/05/03 06:58:12;;;;;;;;;;;9.10;99.90;;;;;;5053261;28;19924;-70
2022/05/03 07:00:38;;;;;;;;;;;9.30;99.90;;;;;;5054598;28;19932;-72
2022/05/03 07:03:03;;;;;;;;;;;9.20;99.90;;;;;;5053784;28;19925;-69
2022/05/03 07:05:29;;;;;;;;;;;9.20;99.90;;;;;;5053087;28;19924;-68
2022/05/03 07:07:56;;;;;;;;;;;9.20;99.90;;;;;;5054382;28;20024;-72
2022/05/03 07:10:21;;;;;;;;;;;9.20;99.90;;;;;;5054109;28;19925;-69
2022/05/03 07:12:47;;;;;;;;;;;9.10;99.90;;;;;;5054118;28;20386;-69
2022/05/03 07:15:12;;;;;;;;;;;9.20;99.90;;;;;;5053113;28;20288;-69
2022/05/03 07:23:08;;;;;;;;;;;9.70;99.90;;;;;;5054005;28;19925;-68
2022/05/03 07:25:35;;;;;;;;;;;8.90;99.90;;;;;;5053783;28;19931;-68
2022/05/03 07:28:00;;;;;;;;;;;9.50;99.90;;;;;;5086552;28;19925;-68
2022/05/03 07:30:26;;;;;;;;;;;9.80;99.90;;;;;;5054058;28;19929;-69
2022/05/03 07:32:51;;;;;;;;;;;8.80;99.90;;;;;;5052707;28;19951;-68
2022/05/03 07:35:17;;;;;;;;;;;8.80;99.90;;;;;;5053619;28;19925;-68
2022/05/03 07:37:43;;;;;;;;;;;8.80;99.90;;;;;;5053869;28;19931;-69
2022/05/03 07:40:09;;;;;;;;;;;9.40;99.90;;;;;;5052302;28;19928;-68
2022/05/03 07:42:35;;;;;;;;;;;8.80;99.90;;;;;;5053945;28;20015;-68
2022/05/03 07:45:01;;;;;;;;;;;9.70;99.90;;;;;;5053734;28;20012;-68
2022/05/03 07:47:26;;;;;;;;;;;8.80;99.90;;;;;;5052818;28;20441;-68
2022/05/03 07:49:53;;;;;;;;;;;9.50;99.90;;;;;;5053828;28;20414;-68
2022/05/03 07:52:18;;;;;;;;;;;8.80;99.90;;;;;;5053625;28;20027;-69
2022/05/03 07:54:44;;;;;;;;;;;8.90;99.90;;;;;;5052548;28;20014;-69
2022/05/03 07:57:12;;;;;;;;;;;9.00;99.90;;;;;;5053244;28;20418;-72
2022/05/03 07:59:40;;;;;;;;;;;8.90;99.90;;;;;;5052420;28;20006;-68
2022/05/03 08:02:07;;;;;;;;;;;8.90;99.90;;;;;;5053624;28;19929;-69
2022/05/03 08:04:33;;;;;;;;;;;8.90;99.90;;;;;;5053461;28;20380;-68
2022/05/03 08:06:59;;;;;;;;;;;8.80;99.90;;;;;;5053612;28;20352;-68
2022/05/03 08:09:24;;;;;;;;;;;8.90;99.90;;;;;;5053400;28;19929;-69
2022/05/03 08:11:50;;;;;;;;;;;8.90;99.90;;;;;;5052373;28;19990;-69
2022/05/03 08:14:16;;;;;;;;;;;9.00;99.90;;;;;;5055335;28;20356;-68
2022/05/03 08:16:41;;;;;;;;;;;9.00;99.90;;;;;;5057594;28;19924;-68
2022/05/03 08:19:07;;;;;;;;;;;9.00;99.90;;;;;;5057568;28;19925;-68
2022/05/03 08:21:32;;;;;;;;;;;9.10;99.90;;;;;;5057453;28;19925;-69
2022/05/03 08:23:58;;;;;;;;;;;9.10;99.90;;;;;;5057518;28;20012;-70
2022/05/03 08:26:24;;;;;;;;;;;9.20;99.90;;;;;;5057172;28;19932;-71
2022/05/03 08:28:50;;;;;;;;;;;9.40;99.90;;;;;;5057365;28;19924;-68
2022/05/03 08:31:16;;;;;;;;;;;9.20;99.90;;;;;;5057547;28;20296;-71
2022/05/03 08:33:41;;;;;;;;;;;9.30;99.90;;;;;;5057127;28;20050;-67
2022/05/03 08:36:08;;;;;;;;;;;9.30;99.90;;;;;;5057101;28;19924;-68
2022/05/03 08:44:01;;;;;;;;;;;9.50;99.90;;;;;;5057111;28;19982;-68
2022/05/03 08:46:29;;;;;;;;;;;9.50;99.90;;;;;;5057051;28;19976;-72
2022/05/03 08:49:02;;;;;;;;;;;9.50;99.90;;;;;;5056981;28;19995;-69
2022/05/03 08:51:31;;;;;;;;;;;9.60;99.90;;;;;;5057325;28;19983;-71
2022/05/03 08:53:58;;;;;;;;;;;9.60;99.90;;;;;;5056036;28;20371;-69
2022/05/03 08:56:24;;;;;;;;;;;9.70;99.90;;;;;;5056898;28;20331;-69
2022/05/03 08:58:49;;;;;;;;;;;9.70;99.90;;;;;;5056606;28;20025;-68
2022/05/03 09:01:15;;;;;;;;;;;9.70;99.90;;;;;;5055809;28;19932;-69
2022/05/03 09:03:41;;;;;;;;;;;10.40;99.90;;;;;;5056721;28;19925;-71
2022/05/03 09:06:07;;;;;;;;;;;9.80;99.90;;;;;;5056475;28;20015;-69
2022/05/03 09:08:33;;;;;;;;;;;9.80;99.90;;;;;;5056201;28;19929;-67
2022/05/03 09:10:59;;;;;;;;;;;10.10;99.90;;;;;;5055384;28;20342;-68
2022/05/03 09:13:26;;;;;;;;;;;9.90;99.90;;;;;;5055319;28;19929;-69
2022/05/03 09:15:52;;;;;;;;;;;9.90;99.90;;;;;;5088716;28;20009;-69
2022/05/03 09:18:22;;;;;;;;;;;9.00;99.90;;;;;;5056364;28;19925;-72
2022/05/03 09:23:50;;;;;;;;;;;10.00;99.90;;;;;;5056336;28;19929;-68
2022/05/03 09:26:20;;;;;;;;;;;10.00;99.90;;;;;;5053942;28;19978;-69
2022/05/03 09:28:50;;;;;;;;;;;10.10;99.90;;;;;;5054754;28;19968;-69
2022/05/03 09:31:35;;;;;;;;;;;10.10;99.90;;;;;;5055893;28;20300;-69
2022/05/03 09:34:02;;;;;;;;;;;10.10;99.90;;;;;;5055127;28;20021;-69
2022/05/03 09:36:28;;;;;;;;;;;10.10;99.90;;;;;;5055015;28;20291;-69
2022/05/03 09:38:55;;;;;;;;;;;10.20;99.90;;;;;;5056054;28;19925;-70
2022/05/03 09:41:21;;;;;;;;;;;10.20;99.90;;;;;;5055897;28;19925;-69
2022/05/03 09:43:59;;;;;;;;;;;10.30;99.90;;;;;;5054609;28;20351;-69
2022/05/03 09:46:25;;;;;;;;;;;10.30;99.90;;;;;;5056094;28;19924;-69
2022/05/03 09:48:51;;;;;;;;;;;10.30;99.90;;;;;;5055924;28;20331;-70
2022/05/03 09:51:17;;;;;;;;;;;10.50;99.90;;;;;;5055854;28;19925;-71
2022/05/03 09:53:54;;;;;;;;;;;10.40;99.90;;;;;;5038050;28;19924;-72
2022/05/03 09:56:22;;;;;;;;;;;10.40;99.90;;;;;;5055574;28;20011;-69
2022/05/03 09:58:48;;;;;;;;;;;10.40;99.90;;;;;;5055515;28;19924;-71
2022/05/03 10:01:14;;;;;;;;;;;10.40;99.90;;;;;;5054898;28;20380;-69
2022/05/03 10:03:39;;;;;;;;;;;10.40;99.90;;;;;;5055749;28;19925;-70
2022/05/03 10:06:05;;;;;;;;;;;10.40;99.90;;;;;;5055305;28;19931;-68
2022/05/03 10:08:31;;;;;;;;;;;10.40;99.90;;;;;;5055280;28;19983;-69
2022/05/03 10:10:57;;;;;;;;;;;10.50;99.90;;;;;;5053882;28;19929;-68
2022/05/03 10:13:23;;;;;;;;;;;10.50;99.90;;;;;;5054361;28;19932;-70
2022/05/03 10:21:26;;;;;;;;;;;10.60;99.90;;;;;;5055204;28;19925;-72
2022/05/03 10:24:02;;;;;;;;;;;10.70;99.90;;;;;;5055319;28;19932;-71
2022/05/03 10:26:46;;;;;;;;;;;10.70;99.90;;;;;;5054961;28;20447;-69
2022/05/03 10:29:13;;;;;;;;;;;10.70;99.90;;;;;;5052948;28;20004;-70
2022/05/03 10:32:00;;;;;;;;;;;10.70;99.90;;;;;;5044932;28;19931;-68
2022/05/03 10:34:41;;;;;;;;;;;10.80;99.90;;;;;;5054884;28;20103;-69
2022/05/03 10:37:07;;;;;;;;;;;10.80;99.90;;;;;;5052784;28;19928;-68
2022/05/03 10:39:33;;;;;;;;;;;11.60;99.90;;;;;;5053724;28;19931;-69
2022/05/03 10:42:01;;;;;;;;;;;10.90;99.90;;;;;;5054795;28;20023;-70
2022/05/03 10:44:42;;;;;;;;;;;10.80;99.90;;;;;;5054732;28;19933;-70
2022/05/03 10:47:09;;;;;;;;;;;10.90;99.90;;;;;;5054605;28;19977;-68
2022/05/03 10:49:34;;;;;;;;;;;11.20;99.90;;;;;;5054898;28;19931;-69
2022/05/03 10:52:14;;;;;;;;;;;11.30;99.90;;;;;;5054687;28;19925;-71
2022/05/03 10:54:58;;;;;;;;;;;11.20;99.90;;;;;;5053400;28;19925;-71
2022/05/03 10:57:23;;;;;;;;;;;11.30;99.90;;;;;;5054286;28;19929;-72
2022/05/03 10:59:49;;;;;;;;;;;11.30;99.90;;;;;;5053622;28;20375;-69
2022/05/03 11:02:15;;;;;;;;;;;11.30;99.90;;;;;;5054594;28;19925;-71
2022/05/03 11:04:59;;;;;;;;;;;10.60;99.90;;;;;;5054395;28;19982;-70
2022/05/03 11:07:25;;;;;;;;;;;11.40;99.90;;;;;;5053422;28;19939;-69
2022/05/03 11:09:50;;;;;;;;;;;11.50;99.90;;;;;;5054010;28;19925;-69
2022/05/03 11:12:16;;;;;;;;;;;11.70;99.90;;;;;;5054064;28;19929;-69
2022/05/03 11:14:41;;;;;;;;;;;11.40;99.90;;;;;;5054328;28;20372;-69
2022/05/03 11:17:08;;;;;;;;;;;11.50;99.90;;;;;;5054123;28;19925;-69
2022/05/03 11:19:35;;;;;;;;;;;11.40;99.90;;;;;;5053227;28;19932;-68
2022/05/03 11:22:00;;;;;;;;;;;11.40;99.90;;;;;;5054067;28;19932;-68
2022/05/03 11:24:27;;;;;;;;;;;11.50;99.90;;;;;;5053912;28;19928;-69
2022/05/03 11:26:55;;;;;;;;;;;11.50;99.90;;;;;;5052844;28;19932;-69
2022/05/03 11:29:26;;;;;;;;;;;11.50;99.90;;;;;;5053417;28;20269;-69
2022/05/03 11:31:51;;;;;;;;;;;11.60;99.90;;;;;;5053192;28;19972;-69
2022/05/03 11:34:18;;;;;;;;;;;11.20;99.90;;;;;;5053919;28;19924;-68
2022/05/03 11:36:46;;;;;;;;;;;11.70;99.90;;;;;;5053925;28;20292;-69
2022/05/03 11:39:12;;;;;;;;;;;11.70;99.90;;;;;;5052814;28;20368;-69
2022/05/03 11:41:38;;;;;;;;;;;11.70;99.90;;;;;;5053601;28;19972;-68
2022/05/03 11:44:04;;;;;;;;;;;11.70;99.90;;;;;;5052602;28;19978;-72
2022/05/03 11:46:29;;;;;;;;;;;11.80;99.90;;;;;;5052160;28;20291;-69
2022/05/03 11:48:59;;;;;;;;;;;11.70;99.90;;;;;;5053177;28;20300;-70
2022/05/03 11:57:05;;;;;;;;;;;11.80;99.90;;;;;;5053325;28;19947;-69
2022/05/03 11:59:31;;;;;;;;;;;11.90;99.90;;;;;;5053486;28;20431;-70
2022/05/03 12:02:12;;;;;;;;;;;12.10;99.90;;;;;;5053488;28;19925;-69
2022/05/03 12:04:38;;;;;;;;;;;11.90;99.90;;;;;;5053195;28;19925;-71
2022/05/03 12:07:03;;;;;;;;;;;11.90;99.90;;;;;;5053124;28;19932;-69
2022/05/03 12:09:35;;;;;;;;;;;11.90;99.90;;;;;;5053261;28;19924;-69
2022/05/03 12:14:45;;;;;;;;;;;11.10;99.90;;;;;;5053223;28;19931;-71
2022/05/03 12:17:11;;;;;;;;;;;12.10;99.90;;;;;;5052874;28;19924;-70
2022/05/03 12:19:37;;;;;;;;;;;12.10;99.90;;;;;;5053024;28;20384;-68
2022/05/03 12:22:09;;;;;;;;;;;12.10;99.90;;;;;;5052317;28;20440;-69
2022/05/03 12:24:35;;;;;;;;;;;12.10;99.90;;;;;;5053211;28;20023;-69
2022/05/03 12:27:11;;;;;;;;;;;12.10;99.90;;;;;;5052819;28;20402;-70
2022/05/03 12:29:43;;;;;;;;;;;12.10;99.90;;;;;;5053006;28;19935;-70
2022/05/03 12:32:16;;;;;;;;;;;12.00;99.90;;;;;;5052914;28;19931;-69
2022/05/03 12:34:55;;;;;;;;;;;12.00;99.90;;;;;;5052246;28;19925;-69
2022/05/03 12:37:21;;;;;;;;;;;12.00;99.90;;;;;;5051788;28;20299;-72
2022/05/03 12:39:46;;;;;;;;;;;12.00;99.90;;;;;;5052064;28;19936;-70
2022/05/03 12:42:12;;;;;;;;;;;12.00;99.90;;;;;;5052868;28;19951;-69
2022/05/03 12:44:48;;;;;;;;;;;12.80;99.90;;;;;;5052725;28;19925;-69
2022/05/03 12:47:15;;;;;;;;;;;12.10;99.90;;;;;;5052953;28;19925;-70
2022/05/03 12:49:41;;;;;;;;;;;12.10;99.90;;;;;;5053014;28;20375;-69
2022/05/03 12:52:06;;;;;;;;;;;12.20;99.90;;;;;;5052974;28;19983;-72
2022/05/03 12:54:32;;;;;;;;;;;12.10;99.90;;;;;;5052810;28;19924;-69
2022/05/03 12:59:42;;;;;;;;;;;12.10;99.90;;;;;;5052833;28;20410;-71
2022/05/03 13:02:08;;;;;;;;;;;12.00;99.90;;;;;;5056712;28;19979;-69
2022/05/03 13:04:33;;;;;;;;;;;12.00;99.90;;;;;;5056469;28;19932;-69
2022/05/03 13:07:00;;;;;;;;;;;12.00;99.90;;;;;;5056505;28;19981;-69
2022/05/03 13:09:27;;;;;;;;;;;11.90;99.90;;;;;;5055272;28;19935;-72
2022/05/03 13:11:53;;;;;;;;;;;11.90;99.90;;;;;;5056134;28;19925;-70
2022/05/03 13:14:18;;;;;;;;;;;11.90;99.90;;;;;;5056292;28;20066;-68
2022/05/03 13:16:45;;;;;;;;;;;11.90;99.90;;;;;;5056429;28;19932;-71
2022/05/03 13:19:12;;;;;;;;;;;11.90;99.90;;;;;;5056465;28;20011;-69
2022/05/03 13:21:39;;;;;;;;;;;11.90;99.90;;;;;;5055404;28;19940;-72
2022/05/03 13:24:06;;;;;;;;;;;11.90;99.90;;;;;;5055371;28;19925;-69
2022/05/03 13:26:33;;;;;;;;;;;11.90;99.90;;;;;;5055548;28;19924;-69
2022/05/03 13:29:00;;;;;;;;;;;11.80;99.90;;;;;;5054784;28;19925;-69
2022/05/03 13:31:27;;;;;;;;;;;11.90;99.90;;;;;;5055129;28;20293;-70
2022/05/03 13:33:52;;;;;;;;;;;11.90;99.90;;;;;;5054888;28;20281;-69
2022/05/03 13:41:47;;;;;;;;;;;12.10;99.90;;;;;;5055937;28;19978;-70
2022/05/03 13:44:13;;;;;;;;;;;12.20;99.90;;;;;;5055012;28;19925;-68
2022/05/03 13:46:38;;;;;;;;;;;12.20;99.90;;;;;;5055894;28;19928;-69
2022/05/03 13:49:04;;;;;;;;;;;12.20;99.90;;;;;;5055735;28;19925;-69
2022/05/03 13:51:29;;;;;;;;;;;12.30;99.90;;;;;;5055759;28;19925;-70
2022/05/03 13:53:55;;;;;;;;;;;12.30;99.90;;;;;;5054673;28;19938;-71
2022/05/03 13:56:20;;;;;;;;;;;12.20;99.90;;;;;;5055683;28;19929;-69
2022/05/03 13:58:47;;;;;;;;;;;12.20;99.90;;;;;;5054654;28;19935;-69
2022/05/03 14:01:12;;;;;;;;;;;12.20;99.90;;;;;;5054666;28;19925;-71
2022/05/03 14:03:38;;;;;;;;;;;12.20;99.90;;;;;;5055594;28;19970;-70
2022/05/03 14:06:03;;;;;;;;;;;12.30;99.90;;;;;;5055407;28;19924;-72
2022/05/03 14:08:29;;;;;;;;;;;12.30;99.90;;;;;;5054071;28;19932;-70
2022/05/03 14:10:55;;;;;;;;;;;12.20;99.90;;;;;;5053770;28;20024;-69
2022/05/03 14:13:21;;;;;;;;;;;12.10;99.90;;;;;;5055303;28;20023;-70
2022/05/03 14:15:46;;;;;;;;;;;12.10;99.90;;;;;;5055449;28;19935;-69
2022/05/03 14:18:12;;;;;;;;;;;12.20;99.90;;;;;;5055304;28;19929;-72
2022/05/03 14:20:37;;;;;;;;;;;12.10;99.90;;;;;;5055209;28;19979;-69
2022/05/03 14:23:03;;;;;;;;;;;12.30;99.90;;;;;;5055150;28;19972;-68
2022/05/03 14:25:28;;;;;;;;;;;12.50;99.90;;;;;;5054991;28;19925;-69
2022/05/03 14:27:54;;;;;;;;;;;12.50;99.90;;;;;;5055032;28;19924;-68
2022/05/03 14:30:20;;;;;;;;;;;12.60;99.90;;;;;;5055160;28;19925;-70
2022/05/03 14:32:46;;;;;;;;;;;12.70;99.90;;;;;;5055133;28;20359;-74
2022/05/03 14:35:12;;;;;;;;;;;12.70;99.90;;;;;;5055048;28;20307;-70
2022/05/03 14:37:38;;;;;;;;;;;12.70;99.90;;;;;;5054795;28;19925;-71
2022/05/03 14:40:05;;;;;;;;;;;12.60;99.90;;;;;;5054791;28;19932;-70
2022/05/03 14:42:31;;;;;;;;;;;12.60;99.90;;;;;;5053546;28;20037;-71
2022/05/03 14:44:56;;;;;;;;;;;12.50;99.90;;;;;;5054777;28;19995;-72
2022/05/03 14:47:22;;;;;;;;;;;12.40;99.90;;;;;;5054728;28;20383;-71
2022/05/03 14:49:48;;;;;;;;;;;12.30;99.90;;;;;;5054704;28;19928;-70
2022/05/03 14:52:15;;;;;;;;;;;12.20;99.90;;;;;;5053698;28;19956;-68
2022/05/03 14:54:42;;;;;;;;;;;12.10;99.90;;;;;;5054360;28;19925;-69
2022/05/03 15:05:21;;;;;;;;;;;12.50;99.90;;;;;;5054185;28;19925;-70
2022/05/03 15:07:47;;;;;;;;;;;12.70;99.90;;;;;;5053560;28;19925;-70
2022/05/03 15:10:13;;;;;;;;;;;12.60;99.90;;;;;;5054304;28;19931;-72
2022/05/03 15:12:39;;;;;;;;;;;12.80;99.90;;;;;;5054154;28;19925;-68
2022/05/03 15:15:05;;;;;;;;;;;13.00;99.90;;;;;;5052645;28;19980;-70
2022/05/03 15:17:30;;;;;;;;;;;13.10;99.90;;;;;;5053958;28;19968;-68
2022/05/03 15:19:56;;;;;;;;;;;13.20;99.90;;;;;;5054018;28;19929;-69